Time;durP1;ratioP1;P1;durP2;ratioP2;P2;SDS_P1;SDS_P2;PMS_P1;PMS_P2;Temp;Humidity;BMP_temperature;BMP_pressure;BME280_temperature;BME280_humidity;BME280_pressure;Samples;Min_cycle;Max_cycle;Signal;HPM_P1;HPM_P2
2021/12/11 00:00:09;;;;;;;39.97;19.77;;;;;;;6.33;100.00;99356.91;5071523;28;20202;-77
2021/12/11 00:02:36;;;;;;;57.47;20.97;;;;;;;6.23;100.00;99363.59;5071346;28;20669;-76
2021/12/11 00:05:03;;;;;;;65.70;19.67;;;;;;;6.38;100.00;99351.03;5078127;28;20537;-76
2021/12/11 00:07:30;;;;;;;46.07;19.77;;;;;;;6.24;100.00;99354.16;5092560;28;20230;-76
2021/12/11 00:10:03;;;;;;;38.20;19.40;;;;;;;6.30;100.00;99359.41;5091250;28;20198;-76
2021/12/11 00:12:33;;;;;;;38.23;19.23;;;;;;;6.19;100.00;99364.34;5089957;28;20190;-76
2021/12/11 00:15:09;;;;;;;41.80;20.67;;;;;;;6.30;100.00;99369.72;5082076;28;20589;-76
2021/12/11 00:17:36;;;;;;;46.80;22.17;;;;;;;6.36;100.00;99375.84;5070450;28;20199;-76
2021/12/11 00:20:09;;;;;;;58.27;20.67;;;;;;;6.15;100.00;99372.84;5070955;28;20580;-76
2021/12/11 00:22:35;;;;;;;51.13;21.27;;;;;;;5.82;100.00;99330.91;5071536;28;20195;-76
2021/12/11 00:25:09;;;;;;;51.80;21.43;;;;;;;6.24;100.00;99387.63;5079545;28;20202;-77
2021/12/11 00:27:38;;;;;;;53.63;20.27;;;;;;;6.27;100.00;99385.09;5091628;28;20257;-76
2021/12/11 00:30:10;;;;;;;44.23;21.50;;;;;;;6.44;100.00;99386.31;5091443;28;20673;-76
2021/12/11 00:32:39;;;;;;;46.63;21.63;;;;;;;6.46;100.00;99398.38;5088642;28;20267;-77
2021/12/11 00:35:09;;;;;;;48.60;23.27;;;;;;;6.63;100.00;99403.00;5083444;28;20234;-76
2021/12/11 00:37:38;;;;;;;48.67;22.70;;;;;;;6.51;100.00;99385.59;5095456;28;20198;-76
2021/12/11 00:40:10;;;;;;;51.37;22.57;;;;;;;6.65;100.00;99381.56;5095503;28;20194;-76
2021/12/11 00:42:38;;;;;;;58.07;23.53;;;;;;;6.69;100.00;99382.50;5094918;28;20201;-76
2021/12/11 00:45:14;;;;;;;53.60;23.90;;;;;;;6.49;100.00;99392.44;5085106;28;20191;-76
2021/12/11 00:47:46;;;;;;;66.77;25.33;;;;;;;6.59;100.00;99378.91;5074028;28;20226;-76
2021/12/11 00:50:15;;;;;;;74.53;24.50;;;;;;;6.59;100.00;99391.78;5074785;28;20198;-76
2021/12/11 00:52:45;;;;;;;62.00;26.77;;;;;;;6.49;100.00;99359.81;5075919;28;20214;-77
2021/12/11 00:55:21;;;;;;;59.57;22.83;;;;;;;6.70;100.00;99386.81;5084676;28;20194;-76
2021/12/11 00:57:50;;;;;;;52.17;24.20;;;;;;;6.79;100.00;99398.16;5094626;28;20206;-77
2021/12/11 01:00:22;;;;;;;53.37;21.63;;;;;;;6.82;100.00;99399.91;5092546;28;20193;-76
2021/12/11 01:02:53;;;;;;;57.70;23.77;;;;;;;6.65;100.00;99391.88;5074651;28;20195;-77
2021/12/11 01:05:21;;;;;;;61.27;21.17;;;;;;;6.78;100.00;99398.13;5085225;28;20217;-76
2021/12/11 01:07:48;;;;;;;38.30;19.93;;;;;;;6.85;100.00;99397.41;5095266;28;20226;-76
2021/12/11 01:10:23;;;;;;;61.97;22.70;;;;;;;6.63;100.00;99406.44;5094676;28;20190;-76
2021/12/11 01:12:57;;;;;;;54.80;20.47;;;;;;;6.70;100.00;99407.44;5080758;28;20200;-76
2021/12/11 01:15:30;;;;;;;64.63;21.93;;;;;;;6.79;100.00;99397.28;5085507;28;20285;-76
2021/12/11 01:18:11;;;;;;;61.57;24.77;;;;;;;6.82;100.00;99403.38;5093823;28;20263;-76
2021/12/11 01:20:48;;;;;;;86.73;17.57;;;;;;;6.78;100.00;99411.88;5093902;28;20251;-77
2021/12/11 01:23:29;;;;;;;65.20;18.63;;;;;;;6.86;100.00;99409.44;5077699;28;20202;-77
2021/12/11 01:25:58;;;;;;;63.87;19.27;;;;;;;6.75;100.00;99401.50;5089496;28;20684;-76
2021/12/11 01:28:25;;;;;;;64.57;20.37;;;;;;;6.74;100.00;99407.50;5094087;28;20347;-76
2021/12/11 01:30:53;;;;;;;65.40;19.10;;;;;;;6.85;100.00;99420.59;5088502;28;20201;-76
2021/12/11 01:33:20;;;;;;;40.53;16.97;;;;;;;6.78;100.00;99429.03;5073728;28;20199;-76
2021/12/11 01:35:48;;;;;;;63.90;18.63;;;;;;;6.76;100.00;99423.00;5087802;28;20245;-76
2021/12/11 01:38:18;;;;;;;74.60;17.37;;;;;;;6.77;100.00;99417.00;5094191;28;20199;-76
2021/12/11 01:40:49;;;;;;;158.37;19.50;;;;;;;6.64;100.00;99415.88;5094067;28;20190;-76
2021/12/11 01:43:22;;;;;;;126.33;18.70;;;;;;;6.64;100.00;99412.44;5094177;28;20194;-76
2021/12/11 01:45:52;;;;;;;175.67;18.53;;;;;;;6.68;100.00;99414.25;5079011;28;20637;-76
2021/12/11 01:48:21;;;;;;;103.03;18.20;;;;;;;6.59;100.00;99416.66;5076830;28;20222;-76
2021/12/11 01:50:52;;;;;;;89.30;19.87;;;;;;;6.68;100.00;99420.28;5093711;28;20194;-76
2021/12/11 01:53:26;;;;;;;84.33;16.47;;;;;;;6.46;100.00;99439.56;5085740;28;20624;-76
2021/12/11 01:55:57;;;;;;;153.60;18.47;;;;;;;6.59;100.00;99439.81;5073468;28;20199;-76
2021/12/11 01:58:29;;;;;;;108.50;23.57;;;;;;;6.55;100.00;99430.31;5073613;28;20187;-76
2021/12/11 02:01:01;;;;;;;78.97;15.77;;;;;;;6.42;100.00;99419.75;5073643;28;20218;-76
2021/12/11 02:03:31;;;;;;;114.10;16.20;;;;;;;6.42;100.00;99416.31;5081893;28;20205;-76
2021/12/11 02:05:59;;;;;;;96.40;23.07;;;;;;;6.52;100.00;99412.22;5093417;28;20239;-76
2021/12/11 02:08:29;;;;;;;66.23;17.90;;;;;;;6.62;100.00;99407.28;5093558;28;20703;-76
2021/12/11 02:10:59;;;;;;;130.57;16.60;;;;;;;6.51;100.00;99407.91;5093571;28;20187;-77
2021/12/11 02:13:40;;;;;;;118.93;18.53;;;;;;;6.55;100.00;99407.13;5076771;28;20199;-78
2021/12/11 02:16:14;;;;;;;110.10;17.50;;;;;;;6.41;100.00;99405.16;5072623;28;20190;-76
2021/12/11 02:18:45;;;;;;;84.07;16.67;;;;;;;6.35;100.00;99402.44;5073538;28;20207;-77
2021/12/11 02:21:15;;;;;;;96.73;17.67;;;;;;;6.27;100.00;99379.97;5076853;28;20304;-76
2021/12/11 02:23:45;;;;;;;63.07;16.53;;;;;;;6.24;100.00;99360.16;5078943;28;20531;-76
2021/12/11 02:26:15;;;;;;;77.63;17.93;;;;;;;6.22;100.00;99361.84;5072974;28;20203;-76
2021/12/11 02:28:47;;;;;;;72.03;18.63;;;;;;;6.17;100.00;99372.88;5072899;28;20226;-77
2021/12/11 02:31:18;;;;;;;71.20;20.27;;;;;;;6.17;100.00;99368.59;5079231;28;20194;-77
2021/12/11 02:33:52;;;;;;;106.93;16.10;;;;;;;6.18;100.00;99360.03;5078141;28;20194;-76
2021/12/11 02:36:24;;;;;;;64.03;16.57;;;;;;;6.12;100.00;99352.19;5072450;28;20226;-76
2021/12/11 02:38:57;;;;;;;70.13;17.53;;;;;;;6.08;100.00;99347.81;5072435;28;20206;-76
2021/12/11 02:41:30;;;;;;;75.10;16.97;;;;;;;6.04;100.00;99356.31;5072430;28;20297;-76
2021/12/11 02:44:04;;;;;;;87.03;17.97;;;;;;;6.13;100.00;99351.38;5088178;28;20190;-76
2021/12/11 02:46:37;;;;;;;184.07;19.17;;;;;;;6.14;100.00;99347.06;5092153;28;20194;-76
2021/12/11 02:49:08;;;;;;;162.57;19.53;;;;;;;6.03;100.00;99343.44;5092857;28;20574;-76
2021/12/11 02:51:39;;;;;;;76.30;19.27;;;;;;;6.26;100.00;99368.78;5090163;28;20665;-76
2021/12/11 02:54:13;;;;;;;138.10;20.80;;;;;;;6.31;100.00;99369.72;5075110;28;20195;-76
2021/12/11 02:56:44;;;;;;;127.27;22.77;;;;;;;6.35;100.00;99378.41;5072350;28;20205;-76
2021/12/11 02:59:14;;;;;;;167.83;25.20;;;;;;;6.35;100.00;99376.69;5071732;28;20214;-77
2021/12/11 03:01:49;;;;;;;182.67;24.70;;;;;;;6.41;100.00;99388.81;5072013;28;20677;-76
2021/12/11 03:04:26;;;;;;;100.23;18.40;;;;;;;6.32;100.00;99398.91;5090081;28;20204;-76
2021/12/11 03:06:55;;;;;;;136.43;23.30;;;;;;;6.26;100.00;99397.09;5092219;28;20193;-75
2021/12/11 03:09:28;;;;;;;115.70;21.63;;;;;;;6.27;100.00;99391.13;5083707;28;20623;-77
2021/12/11 03:11:58;;;;;;;87.73;17.27;;;;;;;6.10;100.00;99376.16;5072538;28;20639;-76
2021/12/11 03:14:27;;;;;;;70.63;15.93;;;;;;;6.12;100.00;99364.19;5090578;28;20741;-76
2021/12/11 03:16:54;;;;;;;92.57;16.23;;;;;;;5.53;100.00;99291.72;5091380;28;20209;-76
2021/12/11 03:19:25;;;;;;;67.47;14.37;;;;;;;5.94;100.00;99386.13;5080179;28;20214;-76
2021/12/11 03:21:54;;;;;;;32.40;12.93;;;;;;;5.71;100.00;99370.97;5071862;28;20199;-76
2021/12/11 03:24:23;;;;;;;60.03;13.73;;;;;;;5.79;100.00;99388.31;5089699;28;20616;-76
2021/12/11 03:26:52;;;;;;;47.07;14.90;;;;;;;5.48;100.00;99345.63;5091917;28;20205;-76
2021/12/11 03:29:18;;;;;;;45.70;12.03;;;;;;;5.63;100.00;99372.50;5075439;28;20191;-76
2021/12/11 03:31:46;;;;;;;39.80;12.73;;;;;;;5.46;100.00;99362.69;5071701;28;20202;-76
2021/12/11 03:34:20;;;;;;;42.57;13.80;;;;;;;5.63;100.00;99388.81;5088855;28;20194;-76
2021/12/11 03:36:47;;;;;;;46.93;14.37;;;;;;;5.68;100.00;99388.88;5071822;28;20242;-76
2021/12/11 03:39:17;;;;;;;30.13;11.87;;;;;;;5.54;100.00;99392.84;5071899;28;20199;-76
2021/12/11 03:41:47;;;;;;;59.63;27.27;;;;;;;5.45;100.00;99389.25;5071659;28;20205;-77
2021/12/11 03:44:15;;;;;;;33.20;14.47;;;;;;;5.33;100.00;99373.50;5072033;28;20818;-76
2021/12/11 03:46:44;;;;;;;54.27;14.00;;;;;;;5.47;100.00;99382.44;5088463;28;20194;-76
2021/12/11 03:49:14;;;;;;;40.33;13.57;;;;;;;5.39;100.00;99386.50;5090639;28;20569;-76
2021/12/11 03:51:45;;;;;;;22.30;11.57;;;;;;;5.29;100.00;99386.25;5077072;28;20637;-76
2021/12/11 03:54:15;;;;;;;44.27;13.87;;;;;;;5.19;100.00;99400.56;5092004;28;20190;-75
2021/12/11 03:56:42;;;;;;;40.07;17.17;;;;;;;5.31;100.00;99394.88;5072065;28;20202;-76
2021/12/11 03:59:11;;;;;;;41.73;16.63;;;;;;;5.31;100.00;99400.03;5076780;28;20308;-75
2021/12/11 04:01:43;;;;;;;31.90;13.33;;;;;;;5.06;100.00;99383.13;5091549;28;20198;-76
2021/12/11 04:04:15;;;;;;;42.13;18.47;;;;;;;5.16;100.00;99390.22;5090158;28;20213;-75
2021/12/11 04:06:43;;;;;;;49.50;19.60;;;;;;;5.26;100.00;99393.88;5071757;28;20742;-75
2021/12/11 04:09:14;;;;;;;47.30;16.73;;;;;;;5.26;100.00;99386.19;5073283;28;20654;-76
2021/12/11 04:11:42;;;;;;;46.10;17.07;;;;;;;5.21;100.00;99395.50;5075422;28;20199;-77
2021/12/11 04:14:13;;;;;;;37.63;15.70;;;;;;;5.29;100.00;99392.25;5076317;28;20199;-76
2021/12/11 04:16:41;;;;;;;64.37;19.53;;;;;;;5.35;100.00;99396.69;5094721;28;20200;-76
2021/12/11 04:19:09;;;;;;;43.63;17.63;;;;;;;5.28;100.00;99399.94;5081052;28;20203;-75
2021/12/11 04:21:37;;;;;;;37.13;14.43;;;;;;;5.15;100.00;99398.75;5074989;28;20193;-76
2021/12/11 04:24:06;;;;;;;28.40;14.27;;;;;;;5.15;100.00;99390.19;5083372;28;20584;-76
2021/12/11 04:26:34;;;;;;;39.27;11.90;;;;;;;5.02;100.00;99395.84;5075069;28;20694;-77
2021/12/11 04:29:01;;;;;;;46.77;14.43;;;;;;;5.01;100.00;99394.97;5075301;28;20226;-76
2021/12/11 04:31:31;;;;;;;30.53;14.43;;;;;;;4.94;100.00;99368.25;5074840;28;20670;-76
2021/12/11 04:34:02;;;;;;;22.93;12.30;;;;;;;4.97;100.00;99382.88;5075127;28;20191;-76
2021/12/11 04:36:33;;;;;;;26.67;13.43;;;;;;;4.91;100.00;99377.59;5094662;28;20316;-76
2021/12/11 04:39:02;;;;;;;22.80;13.33;;;;;;;4.94;100.00;99377.66;5095368;28;20229;-76
2021/12/11 04:41:36;;;;;;;25.87;13.23;;;;;;;4.84;100.00;99375.69;5091641;28;20565;-76
2021/12/11 04:44:09;;;;;;;31.50;14.17;;;;;;;4.86;100.00;99379.16;5074744;28;20285;-75
2021/12/11 04:46:37;;;;;;;31.87;12.47;;;;;;;4.86;100.00;99384.28;5073669;28;20668;-76
2021/12/11 04:49:12;;;;;;;28.27;14.27;;;;;;;4.83;100.00;99384.22;5074847;28;20230;-76
2021/12/11 04:51:45;;;;;;;34.20;12.30;;;;;;;4.75;100.00;99378.88;5074777;28;20218;-75
2021/12/11 04:54:34;;;;;;;28.33;15.07;;;;;;;4.82;100.00;99373.06;5075197;28;20195;-76
2021/12/11 05:00:05;;;;;;;39.73;12.17;;;;;;;4.77;100.00;99355.81;5089739;28;20757;-76
2021/12/11 05:05:28;;;;;;;46.03;12.73;;;;;;;4.82;100.00;99351.66;5063256;28;20205;-76
2021/12/11 05:08:12;;;;;;;88.23;13.93;;;;;;;4.91;100.00;99346.75;5094422;28;20226;-76
2021/12/11 05:10:48;;;;;;;85.83;16.20;;;;;;;4.91;100.00;99337.38;5092138;28;20198;-76
2021/12/11 05:13:16;;;;;;;66.47;16.33;;;;;;;5.02;100.00;99340.19;5094746;28;20199;-75
2021/12/11 05:15:45;;;;;;;129.70;16.40;;;;;;;5.07;100.00;99341.16;5090804;28;20189;-77
2021/12/11 05:18:16;;;;;;;107.63;14.93;;;;;;;4.99;100.00;99338.41;5093375;28;20198;-76
2021/12/11 05:20:46;;;;;;;76.83;17.07;;;;;;;5.00;100.00;99340.16;5078126;28;20219;-75
2021/12/11 05:23:13;;;;;;;92.60;16.43;;;;;;;5.09;100.00;99334.38;5074456;28;20595;-76
2021/12/11 05:25:40;;;;;;;126.90;15.73;;;;;;;5.09;100.00;99336.94;5074080;28;20198;-76
2021/12/11 05:28:07;;;;;;;68.50;11.07;;;;;;;5.04;100.00;99328.25;5074325;28;20236;-75
2021/12/11 05:30:37;;;;;;;123.17;14.10;;;;;;;5.15;100.00;99331.09;5087173;28;20255;-75
2021/12/11 05:33:04;;;;;;;154.27;18.23;;;;;;;5.14;100.00;99343.06;5094517;28;20206;-76
2021/12/11 05:35:35;;;;;;;97.83;20.07;;;;;;;5.10;100.00;99340.41;5089901;28;20267;-76
2021/12/11 05:38:03;;;;;;;105.27;19.67;;;;;;;5.14;100.00;99340.47;5092893;28;20194;-76
2021/12/11 05:40:33;;;;;;;69.37;15.83;;;;;;;5.20;100.00;99325.25;5077806;28;20249;-76
2021/12/11 05:43:00;;;;;;;154.13;14.87;;;;;;;5.17;100.00;99335.44;5075012;28;20202;-76
2021/12/11 05:45:27;;;;;;;71.80;13.00;;;;;;;5.07;100.00;99323.19;5084672;28;20665;-76
2021/12/11 05:47:55;;;;;;;80.17;15.03;;;;;;;5.05;100.00;99350.56;5073082;28;20470;-76
2021/12/11 05:50:25;;;;;;;154.50;20.00;;;;;;;5.06;100.00;99354.88;5074003;28;20256;-76
2021/12/11 05:52:54;;;;;;;73.70;21.07;;;;;;;5.14;100.00;99355.91;5089883;28;20209;-75
2021/12/11 05:55:21;;;;;;;121.67;20.13;;;;;;;4.97;100.00;99346.91;5094155;28;20194;-76
2021/12/11 05:57:53;;;;;;;72.93;19.87;;;;;;;5.14;100.00;99368.75;5085802;28;20237;-75
2021/12/11 06:00:25;;;;;;;75.77;19.43;;;;;;;5.05;100.00;99373.66;5077283;28;20194;-76
2021/12/11 06:02:53;;;;;;;90.57;20.73;;;;;;;5.06;100.00;99369.41;5078357;28;20198;-76
2021/12/11 06:05:19;;;;;;;52.03;17.00;;;;;;;5.06;100.00;99371.97;5073397;28;20202;-76
2021/12/11 06:07:46;;;;;;;67.87;18.83;;;;;;;5.04;100.00;99356.50;5073283;28;20198;-75
2021/12/11 06:10:19;;;;;;;75.33;18.63;;;;;;;5.06;100.00;99359.13;5072983;28;20195;-76
2021/12/11 06:12:48;;;;;;;80.40;17.30;;;;;;;4.87;100.00;99340.69;5087383;28;20194;-76
2021/12/11 06:15:15;;;;;;;91.93;19.07;;;;;;;4.94;100.00;99362.25;5093635;28;20194;-74
2021/12/11 06:17:43;;;;;;;26.47;10.13;;;;;;;4.69;100.00;99339.34;5076869;28;20575;-77
2021/12/11 06:20:13;;;;;;;42.90;16.00;;;;;;;4.97;100.00;99357.19;5073105;28;20219;-76
2021/12/11 06:22:40;;;;;;;91.00;19.67;;;;;;;4.95;100.00;99351.16;5086100;28;20190;-74
2021/12/11 06:25:11;;;;;;;104.87;18.53;;;;;;;5.10;100.00;99356.66;5084772;28;20203;-76
2021/12/11 06:27:40;;;;;;;38.77;14.00;;;;;;;4.97;100.00;99359.75;5073457;28;20195;-76
2021/12/11 06:30:09;;;;;;;92.63;17.33;;;;;;;4.90;100.00;99355.28;5072866;28;20195;-76
2021/12/11 06:32:36;;;;;;;61.40;15.80;;;;;;;4.85;100.00;99342.31;5072536;28;20195;-76
2021/12/11 06:35:08;;;;;;;148.97;17.33;;;;;;;5.05;100.00;99365.97;5079330;28;20209;-78
2021/12/11 06:37:35;;;;;;;68.83;15.87;;;;;;;4.68;100.00;99309.34;5093243;28;20194;-78
2021/12/11 06:40:02;;;;;;;145.37;17.33;;;;;;;5.04;100.00;99382.19;5090617;28;20591;-78
2021/12/11 06:42:29;;;;;;;117.43;18.90;;;;;;;5.17;100.00;99394.53;5072842;28;20588;-78
2021/12/11 06:44:57;;;;;;;80.40;17.50;;;;;;;5.10;100.00;99392.63;5072785;28;20672;-77
2021/12/11 06:47:24;;;;;;;77.70;15.93;;;;;;;4.52;100.00;99294.38;5072009;28;20210;-76
2021/12/11 06:49:51;;;;;;;132.23;18.93;;;;;;;5.29;100.00;99361.41;5072603;28;20222;-76
2021/12/11 06:52:23;;;;;;;133.87;22.80;;;;;;;5.53;100.00;99386.81;5072113;28;20210;-75
2021/12/11 06:54:51;;;;;;;120.23;27.77;;;;;;;5.47;100.00;99374.72;5085729;28;20194;-74
2021/12/11 06:57:19;;;;;;;95.07;19.23;;;;;;;5.34;100.00;99389.81;5092553;28;20245;-74
2021/12/11 06:59:47;;;;;;;98.93;21.60;;;;;;;5.27;100.00;99360.53;5080559;28;20650;-76
2021/12/11 07:02:16;;;;;;;108.37;24.23;;;;;;;5.42;100.00;99394.28;5080870;28;20198;-75
2021/12/11 07:04:43;;;;;;;58.27;18.10;;;;;;;6.04;100.00;99379.47;5077686;28;20198;-74
2021/12/11 07:07:10;;;;;;;176.90;20.47;;;;;;;5.36;100.00;99360.72;5073314;28;20202;-74
2021/12/11 07:09:37;;;;;;;136.10;21.10;;;;;;;5.25;100.00;99398.16;5080630;28;20214;-75
2021/12/11 07:12:05;;;;;;;214.03;24.57;;;;;;;4.78;100.00;99330.16;5080980;28;20194;-78
2021/12/11 07:14:32;;;;;;;127.40;21.00;;;;;;;5.18;100.00;99409.09;5080553;28;20226;-74
2021/12/11 07:17:00;;;;;;;231.20;18.33;;;;;;;4.97;100.00;99413.69;5077362;28;20201;-76
2021/12/11 07:19:29;;;;;;;151.63;15.83;;;;;;;5.25;100.00;99417.84;5073372;28;20222;-75
2021/12/11 07:21:56;;;;;;;123.40;15.27;;;;;;;5.04;100.00;99414.72;5071695;28;20195;-75
2021/12/11 07:24:27;;;;;;;147.70;14.47;;;;;;;4.82;100.00;99411.59;5076952;28;20202;-75
2021/12/11 07:26:54;;;;;;;67.43;13.97;;;;;;;4.93;100.00;99432.41;5086693;28;20202;-75
2021/12/11 07:29:22;;;;;;;101.67;15.03;;;;;;;4.98;100.00;99441.13;5077889;28;20214;-76
2021/12/11 07:31:51;;;;;;;64.10;13.37;;;;;;;4.89;100.00;99422.88;5087496;28;20198;-75
2021/12/11 07:34:19;;;;;;;80.03;14.40;;;;;;;5.12;100.00;99438.91;5078212;28;20260;-76
2021/12/11 07:36:50;;;;;;;103.17;18.57;;;;;;;5.13;100.00;99440.66;5080714;28;20611;-78
2021/12/11 07:39:20;;;;;;;122.47;27.27;;;;;;;5.18;100.00;99454.47;5080539;28;20286;-75
2021/12/11 07:41:48;;;;;;;93.20;26.93;;;;;;;5.01;100.00;99438.63;5085863;28;20202;-75
2021/12/11 07:44:16;;;;;;;100.10;20.60;;;;;;;4.60;100.00;99375.03;5080414;28;20186;-76
2021/12/11 07:46:43;;;;;;;70.73;12.37;;;;;;;5.00;100.00;99436.88;5084440;28;20194;-76
2021/12/11 07:49:10;;;;;;;59.23;29.53;;;;;;;5.05;100.00;99443.03;5071051;28;20214;-75
2021/12/11 07:51:39;;;;;;;49.13;12.70;;;;;;;4.14;100.00;99299.34;5086405;28;20198;-76
2021/12/11 07:54:08;;;;;;;48.90;19.27;;;;;;;4.94;100.00;99439.31;5091285;28;20205;-76
2021/12/11 07:56:35;;;;;;;76.30;35.17;;;;;;;4.69;100.00;99406.09;5083508;28;20190;-76
2021/12/11 07:59:05;;;;;;;43.63;22.90;;;;;;;4.88;100.00;99450.28;5071416;28;20198;-75
2021/12/11 08:01:35;;;;;;;65.77;29.27;;;;;;;4.83;100.00;99425.28;5081240;28;20637;-75
2021/12/11 08:04:03;;;;;;;77.90;31.93;;;;;;;4.91;100.00;99434.97;5082199;28;20664;-75
2021/12/11 08:06:32;;;;;;;137.40;60.60;;;;;;;4.99;100.00;99432.59;5091313;28;20194;-75
2021/12/11 08:08:59;;;;;;;80.57;40.87;;;;;;;4.91;100.00;99413.53;5073307;28;20227;-74
2021/12/11 08:11:29;;;;;;;53.47;36.37;;;;;;;4.88;100.00;99400.63;5090450;28;20255;-75
2021/12/11 08:13:58;;;;;;;50.93;29.13;;;;;;;5.03;100.00;99413.84;5081212;28;20583;-78
2021/12/11 08:16:32;;;;;;;30.47;18.40;;;;;;;5.18;100.00;99429.66;5078665;28;20669;-75
2021/12/11 08:18:59;;;;;;;16.40;10.27;;;;;;;3.80;100.00;99192.44;5077454;28;20704;-75
2021/12/11 08:21:26;;;;;;;46.50;24.80;;;;;;;5.10;100.00;99405.47;5070553;28;20559;-75
2021/12/11 08:23:55;;;;;;;23.73;14.00;;;;;;;5.08;100.00;99432.81;5089610;28;20197;-75
2021/12/11 08:26:23;;;;;;;26.93;14.00;;;;;;;5.27;100.00;99429.91;5080538;28;20183;-76
2021/12/11 08:28:53;;;;;;;33.00;18.77;;;;;;;5.52;100.00;99428.81;5081593;28;20701;-75
2021/12/11 08:31:21;;;;;;;56.70;34.80;;;;;;;5.64;100.00;99435.94;5071876;28;20198;-75
2021/12/11 08:33:48;;;;;;;38.97;20.57;;;;;;;5.57;100.00;99398.06;5071924;28;20198;-75
2021/12/11 08:36:15;;;;;;;23.70;14.13;;;;;;;5.70;100.00;99418.97;5079740;28;20654;-75
2021/12/11 08:38:42;;;;;;;32.07;18.67;;;;;;;5.86;100.00;99428.81;5090876;28;20221;-75
2021/12/11 08:41:11;;;;;;;57.23;26.33;;;;;;;6.10;100.00;99428.47;5081783;28;20199;-75
2021/12/11 08:43:38;;;;;;;37.70;18.20;;;;;;;6.23;100.00;99432.19;5078775;28;20195;-76
2021/12/11 08:46:10;;;;;;;34.13;20.10;;;;;;;6.06;100.00;99431.84;5079546;28;20203;-76
2021/12/11 08:48:39;;;;;;;26.73;15.70;;;;;;;5.92;100.00;99421.22;5075560;28;20254;-75
2021/12/11 08:51:10;;;;;;;33.93;19.63;;;;;;;6.09;100.00;99431.91;5075431;28;20677;-76
2021/12/11 08:53:38;;;;;;;30.47;16.00;;;;;;;6.01;100.00;99430.84;5083188;28;20200;-76
2021/12/11 08:56:08;;;;;;;47.70;22.57;;;;;;;6.10;100.00;99413.03;5083970;28;20202;-75
2021/12/11 08:58:36;;;;;;;42.77;23.80;;;;;;;6.41;100.00;99415.44;5075392;28;20202;-76
2021/12/11 09:01:10;;;;;;;41.57;24.00;;;;;;;6.37;100.00;99412.78;5075131;28;20198;-77
2021/12/11 09:03:46;;;;;;;35.63;21.93;;;;;;;6.55;100.00;99408.00;5084429;28;20198;-76
2021/12/11 09:06:17;;;;;;;55.77;32.97;;;;;;;6.58;100.00;99404.59;5091814;28;20193;-75
2021/12/11 09:08:47;;;;;;;67.50;37.30;;;;;;;6.89;100.00;99409.50;5072970;28;20194;-76
2021/12/11 09:11:19;;;;;;;36.20;21.70;;;;;;;6.83;100.00;99405.13;5091493;28;20194;-76
2021/12/11 09:13:53;;;;;;;40.47;22.83;;;;;;;6.79;100.00;99403.31;5092026;28;20190;-77
2021/12/11 09:16:25;;;;;;;32.67;18.90;;;;;;;7.08;100.00;99408.13;5094399;28;20198;-76
2021/12/11 09:18:58;;;;;;;42.00;24.93;;;;;;;7.19;100.00;99404.03;5092727;28;20194;-77
2021/12/11 09:21:32;;;;;;;33.83;20.80;;;;;;;7.21;100.00;99351.66;5093345;28;20201;-76
2021/12/11 09:24:04;;;;;;;43.07;22.10;;;;;;;7.13;100.00;99373.88;5077723;28;20189;-75
2021/12/11 09:26:37;;;;;;;42.93;22.83;;;;;;;7.28;100.00;99394.75;5094000;28;20552;-75
2021/12/11 09:29:12;;;;;;;36.20;18.57;;;;;;;7.10;100.00;99388.44;5082951;28;20226;-76
2021/12/11 09:31:46;;;;;;;43.83;22.67;;;;;;;7.07;100.00;99394.38;5083901;28;20281;-76
2021/12/11 09:34:18;;;;;;;42.80;22.03;;;;;;;7.30;100.00;99393.06;5075565;28;20696;-75
2021/12/11 09:36:48;;;;;;;34.23;17.77;;;;;;;7.47;100.00;99371.00;5089506;28;20660;-76
2021/12/11 09:39:21;;;;;;;36.03;19.20;;;;;;;7.71;100.00;99369.63;5075375;28;20674;-75
2021/12/11 09:41:48;;;;;;;46.03;19.37;;;;;;;7.62;100.00;99382.41;5083441;28;20190;-76
2021/12/11 09:44:19;;;;;;;29.83;16.30;;;;;;;7.66;100.00;99381.63;5080358;28;20193;-79
2021/12/11 09:46:51;;;;;;;29.80;15.93;;;;;;;8.03;100.00;99367.50;5092955;28;20198;-76
2021/12/11 09:49:21;;;;;;;77.57;37.27;;;;;;;8.31;100.00;99372.25;5075878;28;20680;-76
2021/12/11 09:52:01;;;;;;;81.63;38.97;;;;;;;8.46;100.00;99370.69;5073259;28;20198;-76
2021/12/11 09:54:28;;;;;;;53.70;22.93;;;;;;;8.40;100.00;99360.28;5073460;28;20198;-76
2021/12/11 09:57:01;;;;;;;39.97;18.10;;;;;;;8.70;100.00;99372.72;5076978;28;20597;-78
2021/12/11 09:59:31;;;;;;;54.10;22.93;;;;;;;8.41;100.00;99372.38;5093370;28;20292;-77
2021/12/11 10:02:01;;;;;;;38.47;18.97;;;;;;;8.54;100.00;99367.31;5092737;28;20190;-78
2021/12/11 10:04:34;;;;;;;35.93;19.70;;;;;;;8.42;100.00;99353.41;5092445;28;20194;-77
2021/12/11 10:07:27;;;;;;;31.87;17.67;;;;;;;8.18;100.00;99355.66;5092675;28;20193;-77
2021/12/11 10:09:57;;;;;;;44.43;20.80;;;;;;;8.07;100.00;99343.47;5093252;28;20218;-77
2021/12/11 10:12:27;;;;;;;48.00;21.57;;;;;;;8.52;100.00;99345.78;5087358;28;20243;-77
2021/12/11 10:15:01;;;;;;;37.50;19.33;;;;;;;8.18;100.00;99342.75;5089956;28;20190;-80
2021/12/11 10:17:36;;;;;;;38.83;19.13;;;;;;;8.02;100.00;99348.59;5084021;28;20668;-76
2021/12/11 10:20:09;;;;;;;38.67;20.73;;;;;;;8.02;100.00;99320.19;5093326;28;20300;-78
2021/12/11 10:22:40;;;;;;;38.30;17.77;;;;;;;8.27;100.00;99335.16;5093028;28;20202;-76
2021/12/11 10:25:11;;;;;;;43.03;24.00;;;;;;;8.26;100.00;99327.38;5091076;28;20202;-76
2021/12/11 10:27:39;;;;;;;47.73;21.47;;;;;;;8.38;100.00;99330.97;5093457;28;20205;-76
2021/12/11 10:30:09;;;;;;;35.00;17.90;;;;;;;8.35;100.00;99324.91;5092697;28;20662;-76
2021/12/11 10:32:37;;;;;;;42.60;19.77;;;;;;;8.41;100.00;99320.72;5092769;28;20201;-79
2021/12/11 10:35:08;;;;;;;41.73;20.23;;;;;;;8.39;100.00;99317.22;5075693;28;20562;-81
2021/12/11 10:37:38;;;;;;;38.17;19.70;;;;;;;8.34;100.00;99303.41;5072902;28;20199;-83
2021/12/11 10:40:11;;;;;;;56.63;29.27;;;;;;;8.29;100.00;99299.91;5072854;28;20194;-81
2021/12/11 10:42:38;;;;;;;51.00;24.23;;;;;;;8.23;100.00;99294.63;5074293;28;20190;-81
2021/12/11 10:45:09;;;;;;;33.30;16.57;;;;;;;7.86;100.00;99251.16;5079840;28;20193;-82
2021/12/11 10:47:41;;;;;;;27.50;15.23;;;;;;;7.53;100.00;99189.69;5088157;28;20198;-83
2021/12/11 10:50:12;;;;;;;76.80;31.63;;;;;;;8.43;100.00;99305.22;5089474;28;20716;-81
2021/12/11 10:52:40;;;;;;;59.23;25.27;;;;;;;8.39;100.00;99293.97;5080387;28;20194;-82
2021/12/11 10:55:11;;;;;;;40.23;21.20;;;;;;;8.61;100.00;99292.50;5077689;28;20186;-81
2021/12/11 10:57:39;;;;;;;41.07;20.93;;;;;;;8.66;100.00;99295.13;5075161;28;20648;-80
2021/12/11 11:00:14;;;;;;;81.60;48.13;;;;;;;8.89;100.00;99294.47;5072274;28;20198;-78
2021/12/11 11:02:41;;;;;;;66.20;46.37;;;;;;;8.62;100.00;99294.22;5080808;28;20199;-76
2021/12/11 11:05:13;;;;;;;62.40;34.73;;;;;;;8.40;100.00;99220.81;5094246;28;20190;-78
2021/12/11 11:07:42;;;;;;;94.20;37.53;;;;;;;8.44;100.00;99274.25;5092382;28;20285;-78
2021/12/11 11:10:13;;;;;;;69.53;30.00;;;;;;;8.50;100.00;99293.22;5091814;28;20609;-75
2021/12/11 11:12:40;;;;;;;41.03;20.57;;;;;;;8.17;100.00;99222.25;5089937;28;20194;-77
2021/12/11 11:15:13;;;;;;;39.63;21.03;;;;;;;8.62;100.00;99293.38;5071987;28;20190;-76
2021/12/11 11:17:40;;;;;;;41.00;18.90;;;;;;;8.49;100.00;99255.34;5073621;28;20194;-77
2021/12/11 11:20:09;;;;;;;39.60;18.87;;;;;;;8.53;100.00;99270.00;5072107;28;20211;-77
2021/12/11 11:22:42;;;;;;;45.80;19.67;;;;;;;8.64;100.00;99278.72;5074746;28;20194;-78
2021/12/11 11:25:13;;;;;;;41.20;18.30;;;;;;;8.74;100.00;99268.50;5089955;28;20197;-78
2021/12/11 11:27:42;;;;;;;39.07;17.43;;;;;;;8.51;100.00;99274.28;5084759;28;20190;-77
2021/12/11 11:30:16;;;;;;;49.27;21.30;;;;;;;8.66;100.00;99264.13;5073329;28;20215;-77
2021/12/11 11:32:43;;;;;;;68.23;27.87;;;;;;;8.93;100.00;99246.25;5072357;28;20216;-77
2021/12/11 11:35:13;;;;;;;84.93;36.20;;;;;;;8.60;100.00;99207.19;5086589;28;20731;-78